Wright Pat, Ohio
Current Conditions -  °F | °C
As of 3:58 AM on Saturday 25 Oct 2014 (Local Time) from KFFO Reporting Station
Few Clouds Few Clouds  
Wind Chill:   Ceiling: Unl
Heat Index:   Visibility: 10mi
Dew Point:   Wind: 2mph
Humidity: 83%   Direction: 140°SE
Pressure: 30"   Gusts: NA
Location:  39.8169°N, 84.0506°W
Report Text: KFFO 250758Z AUTO 14002KT 10SM FEW037 08/05 A3000 RMK AO2 SLP162 T00810054
Loading
Personal Weather Stations






























Interactive Weather Map
Tropical Storm Tracking
New forecast layout! Learn more

10-Day Weather Forecast

Advertisements
Track Severe Weather on mobile